sensor_id;sensor_type;location;lat;lon;timestamp;pressure;altitude;pressure_sealevel;temperature;humidity
38630;BME280;24384;51.988;4.644;2023-04-15T00:02:15;100874.63;;;10.56;62.17
38630;BME280;24384;51.988;4.644;2023-04-15T00:04:40;100881.75;;;10.54;61.26
38630;BME280;24384;51.988;4.644;2023-04-15T00:07:05;100879.28;;;10.48;61.60
38630;BME280;24384;51.988;4.644;2023-04-15T00:09:30;100874.47;;;10.61;63.15
38630;BME280;24384;51.988;4.644;2023-04-15T00:11:57;100881.03;;;10.49;62.96
38630;BME280;24384;51.988;4.644;2023-04-15T00:14:22;100892.34;;;10.52;59.46
38630;BME280;24384;51.988;4.644;2023-04-15T00:16:47;100887.22;;;10.48;62.18
38630;BME280;24384;51.988;4.644;2023-04-15T00:19:19;100886.44;;;10.44;62.81
38630;BME280;24384;51.988;4.644;2023-04-15T00:21:44;100880.50;;;10.37;61.84
38630;BME280;24384;51.988;4.644;2023-04-15T00:24:09;100883.56;;;10.22;60.96
38630;BME280;24384;51.988;4.644;2023-04-15T00:26:35;100880.88;;;10.24;61.36
38630;BME280;24384;51.988;4.644;2023-04-15T00:29:00;100882.81;;;10.18;62.42
38630;BME280;24384;51.988;4.644;2023-04-15T00:31:26;100887.47;;;10.10;64.12
38630;BME280;24384;51.988;4.644;2023-04-15T00:33:51;100890.78;;;10.17;62.12
38630;BME280;24384;51.988;4.644;2023-04-15T00:36:16;100884.66;;;10.16;61.39
38630;BME280;24384;51.988;4.644;2023-04-15T00:38:41;100890.19;;;10.07;61.15
38630;BME280;24384;51.988;4.644;2023-04-15T00:41:06;100900.03;;;10.00;63.06
38630;BME280;24384;51.988;4.644;2023-04-15T00:43:33;100899.13;;;10.01;64.43
38630;BME280;24384;51.988;4.644;2023-04-15T00:45:58;100889.50;;;10.00;63.23
38630;BME280;24384;51.988;4.644;2023-04-15T00:48:23;100898.06;;;10.09;60.88
38630;BME280;24384;51.988;4.644;2023-04-15T00:50:49;100893.97;;;9.98;62.41
38630;BME280;24384;51.988;4.644;2023-04-15T00:53:14;100895.88;;;9.93;63.73
38630;BME280;24384;51.988;4.644;2023-04-15T00:55:39;100891.91;;;9.78;62.25
38630;BME280;24384;51.988;4.644;2023-04-15T00:58:04;100891.78;;;9.83;63.08
38630;BME280;24384;51.988;4.644;2023-04-15T01:00:29;100889.13;;;9.83;63.37
38630;BME280;24384;51.988;4.644;2023-04-15T01:02:55;100893.66;;;9.79;64.57
38630;BME280;24384;51.988;4.644;2023-04-15T01:05:20;100892.91;;;9.74;65.12
38630;BME280;24384;51.988;4.644;2023-04-15T01:07:46;100892.31;;;9.64;64.65
38630;BME280;24384;51.988;4.644;2023-04-15T01:10:12;100897.22;;;9.77;62.24
38630;BME280;24384;51.988;4.644;2023-04-15T01:12:37;100890.38;;;9.70;63.15
38630;BME280;24384;51.988;4.644;2023-04-15T01:15:03;100888.59;;;9.72;63.68
38630;BME280;24384;51.988;4.644;2023-04-15T01:17:28;100886.72;;;9.75;64.88
38630;BME280;24384;51.988;4.644;2023-04-15T01:19:55;100892.94;;;9.73;63.77
38630;BME280;24384;51.988;4.644;2023-04-15T01:22:23;100891.38;;;9.67;64.31
38630;BME280;24384;51.988;4.644;2023-04-15T01:24:53;100890.38;;;9.70;64.06
38630;BME280;24384;51.988;4.644;2023-04-15T01:27:19;100892.56;;;9.55;64.62
38630;BME280;24384;51.988;4.644;2023-04-15T01:29:46;100890.88;;;9.53;64.37
38630;BME280;24384;51.988;4.644;2023-04-15T01:32:12;100893.66;;;9.46;63.90
38630;BME280;24384;51.988;4.644;2023-04-15T01:34:37;100899.06;;;9.42;64.31
38630;BME280;24384;51.988;4.644;2023-04-15T01:37:02;100896.44;;;9.42;63.51
38630;BME280;24384;51.988;4.644;2023-04-15T01:39:27;100889.38;;;9.44;65.28
38630;BME280;24384;51.988;4.644;2023-04-15T01:41:53;100888.66;;;9.37;65.83
38630;BME280;24384;51.988;4.644;2023-04-15T01:44:18;100898.28;;;9.38;63.86
38630;BME280;24384;51.988;4.644;2023-04-15T01:46:43;100895.06;;;9.28;64.57
38630;BME280;24384;51.988;4.644;2023-04-15T01:49:09;100897.84;;;9.22;64.58
38630;BME280;24384;51.988;4.644;2023-04-15T01:51:34;100899.56;;;9.23;65.35
38630;BME280;24384;51.988;4.644;2023-04-15T01:53:59;100908.16;;;9.30;64.80
38630;BME280;24384;51.988;4.644;2023-04-15T01:56:25;100901.38;;;9.21;65.83
38630;BME280;24384;51.988;4.644;2023-04-15T01:58:50;100897.72;;;9.27;64.91
38630;BME280;24384;51.988;4.644;2023-04-15T02:01:15;100908.22;;;9.28;65.05
38630;BME280;24384;51.988;4.644;2023-04-15T02:03:43;100904.91;;;9.20;66.01
38630;BME280;24384;51.988;4.644;2023-04-15T02:06:08;100912.03;;;9.17;65.38
38630;BME280;24384;51.988;4.644;2023-04-15T02:08:35;100905.78;;;9.21;65.75
38630;BME280;24384;51.988;4.644;2023-04-15T02:11:00;100905.06;;;9.14;65.30
38630;BME280;24384;51.988;4.644;2023-04-15T02:13:25;100904.16;;;9.15;65.39
38630;BME280;24384;51.988;4.644;2023-04-15T02:15:51;100909.75;;;9.03;66.92
38630;BME280;24384;51.988;4.644;2023-04-15T02:18:16;100897.44;;;9.03;67.79
38630;BME280;24384;51.988;4.644;2023-04-15T02:20:42;100902.97;;;8.92;68.24
38630;BME280;24384;51.988;4.644;2023-04-15T02:23:11;100907.56;;;8.84;67.30
38630;BME280;24384;51.988;4.644;2023-04-15T02:25:36;100901.50;;;8.82;69.82
38630;BME280;24384;51.988;4.644;2023-04-15T02:28:03;100906.13;;;8.71;69.17
38630;BME280;24384;51.988;4.644;2023-04-15T02:30:28;100906.19;;;8.69;69.35
38630;BME280;24384;51.988;4.644;2023-04-15T02:32:54;100912.34;;;8.68;69.01
38630;BME280;24384;51.988;4.644;2023-04-15T02:35:19;100917.66;;;8.67;70.00
38630;BME280;24384;51.988;4.644;2023-04-15T02:37:45;100916.28;;;8.50;69.17
38630;BME280;24384;51.988;4.644;2023-04-15T02:40:12;100926.56;;;8.59;69.42
38630;BME280;24384;51.988;4.644;2023-04-15T02:42:38;100925.91;;;8.51;71.23
38630;BME280;24384;51.988;4.644;2023-04-15T02:45:03;100928.56;;;8.50;71.19
38630;BME280;24384;51.988;4.644;2023-04-15T02:47:29;100928.63;;;8.47;72.58
38630;BME280;24384;51.988;4.644;2023-04-15T02:49:55;100930.16;;;8.55;72.01
38630;BME280;24384;51.988;4.644;2023-04-15T02:52:20;100939.22;;;8.44;72.95
38630;BME280;24384;51.988;4.644;2023-04-15T02:54:45;100942.69;;;8.44;71.81
38630;BME280;24384;51.988;4.644;2023-04-15T02:57:10;100938.28;;;8.45;71.47
38630;BME280;24384;51.988;4.644;2023-04-15T02:59:36;100944.38;;;8.48;73.67
38630;BME280;24384;51.988;4.644;2023-04-15T03:02:03;100948.09;;;8.36;70.99
38630;BME280;24384;51.988;4.644;2023-04-15T03:04:31;100947.28;;;8.34;72.30
38630;BME280;24384;51.988;4.644;2023-04-15T03:06:56;100949.88;;;8.36;74.04
38630;BME280;24384;51.988;4.644;2023-04-15T03:09:21;100942.69;;;8.44;72.82
38630;BME280;24384;51.988;4.644;2023-04-15T03:11:46;100950.59;;;8.42;72.92
38630;BME280;24384;51.988;4.644;2023-04-15T03:14:11;100946.13;;;8.48;72.72
38630;BME280;24384;51.988;4.644;2023-04-15T03:16:37;100956.66;;;8.46;71.11
38630;BME280;24384;51.988;4.644;2023-04-15T03:19:02;100955.16;;;8.34;73.48
38630;BME280;24384;51.988;4.644;2023-04-15T03:21:27;100962.28;;;8.28;72.43
38630;BME280;24384;51.988;4.644;2023-04-15T03:23:52;100955.25;;;8.30;73.86
38630;BME280;24384;51.988;4.644;2023-04-15T03:26:27;100961.38;;;8.30;73.42
38630;BME280;24384;51.988;4.644;2023-04-15T03:28:53;100964.88;;;8.29;72.85
38630;BME280;24384;51.988;4.644;2023-04-15T03:31:18;100970.13;;;8.29;72.55
38630;BME280;24384;51.988;4.644;2023-04-15T03:33:43;100975.50;;;8.24;73.80
38630;BME280;24384;51.988;4.644;2023-04-15T03:36:08;100973.03;;;8.17;75.00
38630;BME280;24384;51.988;4.644;2023-04-15T03:38:33;100983.59;;;8.14;75.25
38630;BME280;24384;51.988;4.644;2023-04-15T03:41:02;100985.56;;;8.04;74.26
38630;BME280;24384;51.988;4.644;2023-04-15T03:43:27;100983.03;;;7.99;75.08
38630;BME280;24384;51.988;4.644;2023-04-15T03:45:52;100992.91;;;7.86;76.01
38630;BME280;24384;51.988;4.644;2023-04-15T03:48:17;100998.22;;;7.83;74.53
38630;BME280;24384;51.988;4.644;2023-04-15T03:50:42;100994.91;;;7.72;76.86
38630;BME280;24384;51.988;4.644;2023-04-15T03:53:08;101000.34;;;7.63;74.66
38630;BME280;24384;51.988;4.644;2023-04-15T03:55:33;101003.00;;;7.61;74.92
38630;BME280;24384;51.988;4.644;2023-04-15T03:57:58;101003.03;;;7.58;75.64
38630;BME280;24384;51.988;4.644;2023-04-15T04:00:23;101005.75;;;7.53;74.13
38630;BME280;24384;51.988;4.644;2023-04-15T04:02:48;101004.25;;;7.40;73.56
38630;BME280;24384;51.988;4.644;2023-04-15T04:05:13;101019.03;;;7.44;73.41
38630;BME280;24384;51.988;4.644;2023-04-15T04:07:39;101019.22;;;7.33;74.49
38630;BME280;24384;51.988;4.644;2023-04-15T04:10:04;101021.94;;;7.27;74.09
38630;BME280;24384;51.988;4.644;2023-04-15T04:12:29;101027.00;;;7.38;73.71
38630;BME280;24384;51.988;4.644;2023-04-15T04:14:55;101029.06;;;7.21;75.20
38630;BME280;24384;51.988;4.644;2023-04-15T04:17:20;101026.34;;;7.27;74.65
38630;BME280;24384;51.988;4.644;2023-04-15T04:19:45;101036.03;;;7.22;75.22
38630;BME280;24384;51.988;4.644;2023-04-15T04:22:10;101036.28;;;7.06;75.52
38630;BME280;24384;51.988;4.644;2023-04-15T04:24:36;101048.63;;;6.98;75.73
38630;BME280;24384;51.988;4.644;2023-04-15T04:27:01;101049.75;;;6.81;77.40
38630;BME280;24384;51.988;4.644;2023-04-15T04:29:26;101050.69;;;6.77;78.05
38630;BME280;24384;51.988;4.644;2023-04-15T04:31:51;101056.63;;;6.89;77.08
38630;BME280;24384;51.988;4.644;2023-04-15T04:34:16;101066.31;;;6.84;77.12
38630;BME280;24384;51.988;4.644;2023-04-15T04:36:42;101063.66;;;6.87;76.77
38630;BME280;24384;51.988;4.644;2023-04-15T04:39:07;101067.19;;;6.82;76.29
38630;BME280;24384;51.988;4.644;2023-04-15T04:41:32;101064.75;;;6.70;76.43
38630;BME280;24384;51.988;4.644;2023-04-15T04:43:57;101070.97;;;6.65;77.07
38630;BME280;24384;51.988;4.644;2023-04-15T04:46:23;101071.72;;;6.71;76.61
38630;BME280;24384;51.988;4.644;2023-04-15T04:48:48;101069.34;;;6.54;77.41
38630;BME280;24384;51.988;4.644;2023-04-15T04:51:13;101084.25;;;6.49;77.78
38630;BME280;24384;51.988;4.644;2023-04-15T04:53:38;101083.31;;;6.53;77.92
38630;BME280;24384;51.988;4.644;2023-04-15T04:56:04;101084.19;;;6.54;77.74
38630;BME280;24384;51.988;4.644;2023-04-15T04:58:29;101091.06;;;6.61;77.59
38630;BME280;24384;51.988;4.644;2023-04-15T05:00:54;101092.88;;;6.59;77.61
38630;BME280;24384;51.988;4.644;2023-04-15T05:03:23;101100.91;;;6.43;77.90
38630;BME280;24384;51.988;4.644;2023-04-15T05:05:49;101101.59;;;6.58;77.72
38630;BME280;24384;51.988;4.644;2023-04-15T05:08:15;101109.41;;;6.62;77.27
38630;BME280;24384;51.988;4.644;2023-04-15T05:10:40;101108.44;;;6.71;77.28
38630;BME280;24384;51.988;4.644;2023-04-15T05:13:07;101119.78;;;6.70;77.48
38630;BME280;24384;51.988;4.644;2023-04-15T05:15:32;101117.13;;;6.75;77.50
38630;BME280;24384;51.988;4.644;2023-04-15T05:17:58;101124.13;;;6.74;78.11
38630;BME280;24384;51.988;4.644;2023-04-15T05:20:24;101133.81;;;6.69;78.52
38630;BME280;24384;51.988;4.644;2023-04-15T05:22:49;101136.34;;;6.75;78.90
38630;BME280;24384;51.988;4.644;2023-04-15T05:25:14;101139.69;;;6.87;78.18
38630;BME280;24384;51.988;4.644;2023-04-15T05:27:40;101152.81;;;6.85;78.67
38630;BME280;24384;51.988;4.644;2023-04-15T05:30:06;101160.53;;;6.97;78.08
38630;BME280;24384;51.988;4.644;2023-04-15T05:32:32;101159.59;;;7.03;78.07
38630;BME280;24384;51.988;4.644;2023-04-15T05:34:58;101170.06;;;7.05;78.29
38630;BME280;24384;51.988;4.644;2023-04-15T05:37:23;101165.47;;;7.21;77.69
38630;BME280;24384;51.988;4.644;2023-04-15T05:39:48;101179.50;;;7.16;78.50
38630;BME280;24384;51.988;4.644;2023-04-15T05:42:13;101177.66;;;7.25;77.67
38630;BME280;24384;51.988;4.644;2023-04-15T05:44:40;101180.72;;;7.55;76.92
38630;BME280;24384;51.988;4.644;2023-04-15T05:47:07;101190.47;;;7.48;76.95
38630;BME280;24384;51.988;4.644;2023-04-15T05:49:33;101198.13;;;7.62;77.03
38630;BME280;24384;51.988;4.644;2023-04-15T05:52:00;101210.06;;;7.81;75.81
38630;BME280;24384;51.988;4.644;2023-04-15T05:54:25;101210.84;;;7.88;76.27
38630;BME280;24384;51.988;4.644;2023-04-15T05:56:51;101220.16;;;8.06;75.43
38630;BME280;24384;51.988;4.644;2023-04-15T05:59:16;101212.16;;;8.14;75.61
38630;BME280;24384;51.988;4.644;2023-04-15T06:01:42;101219.66;;;8.37;75.33
38630;BME280;24384;51.988;4.644;2023-04-15T06:04:07;101218.47;;;8.56;74.40
38630;BME280;24384;51.988;4.644;2023-04-15T06:06:33;101224.44;;;8.65;73.77
38630;BME280;24384;51.988;4.644;2023-04-15T06:08:58;101238.41;;;8.68;74.26
38630;BME280;24384;51.988;4.644;2023-04-15T06:11:24;101232.88;;;8.82;73.52
38630;BME280;24384;51.988;4.644;2023-04-15T06:13:50;101243.97;;;8.98;73.46
38630;BME280;24384;51.988;4.644;2023-04-15T06:16:15;101248.16;;;9.08;73.24
38630;BME280;24384;51.988;4.644;2023-04-15T06:18:41;101254.84;;;9.23;73.40
38630;BME280;24384;51.988;4.644;2023-04-15T06:21:06;101261.47;;;9.43;72.11
38630;BME280;24384;51.988;4.644;2023-04-15T06:23:35;101267.66;;;9.40;72.45
38630;BME280;24384;51.988;4.644;2023-04-15T06:26:00;101269.06;;;9.57;72.75
38630;BME280;24384;51.988;4.644;2023-04-15T06:28:25;101270.34;;;9.78;70.89
38630;BME280;24384;51.988;4.644;2023-04-15T06:30:51;101279.28;;;9.71;71.79
38630;BME280;24384;51.988;4.644;2023-04-15T06:33:16;101289.66;;;9.78;72.03
38630;BME280;24384;51.988;4.644;2023-04-15T06:35:42;101287.59;;;9.91;71.37
38630;BME280;24384;51.988;4.644;2023-04-15T06:38:07;101293.34;;;10.09;71.37
38630;BME280;24384;51.988;4.644;2023-04-15T06:40:32;101303.69;;;10.18;70.88
38630;BME280;24384;51.988;4.644;2023-04-15T06:42:57;101300.28;;;10.11;71.20
38630;BME280;24384;51.988;4.644;2023-04-15T06:45:22;101305.38;;;10.19;71.29
38630;BME280;24384;51.988;4.644;2023-04-15T06:47:49;101312.06;;;10.35;70.59
38630;BME280;24384;51.988;4.644;2023-04-15T06:50:14;101308.47;;;10.39;70.22
38630;BME280;24384;51.988;4.644;2023-04-15T06:52:40;101311.56;;;10.55;69.94
38630;BME280;24384;51.988;4.644;2023-04-15T06:55:05;101305.00;;;10.70;69.25
38630;BME280;24384;51.988;4.644;2023-04-15T06:57:31;101307.16;;;10.89;69.21
38630;BME280;24384;51.988;4.644;2023-04-15T06:59:56;101309.78;;;10.89;68.46
38630;BME280;24384;51.988;4.644;2023-04-15T07:02:21;101315.53;;;11.05;68.46
38630;BME280;24384;51.988;4.644;2023-04-15T07:04:46;101320.63;;;11.13;69.16
38630;BME280;24384;51.988;4.644;2023-04-15T07:07:13;101319.38;;;11.24;69.16
38630;BME280;24384;51.988;4.644;2023-04-15T07:09:39;101320.78;;;11.38;68.23
38630;BME280;24384;51.988;4.644;2023-04-15T07:12:04;101323.03;;;11.52;67.61
38630;BME280;24384;51.988;4.644;2023-04-15T07:14:29;101325.63;;;11.53;67.50
38630;BME280;24384;51.988;4.644;2023-04-15T07:16:55;101329.59;;;11.68;67.13
38630;BME280;24384;51.988;4.644;2023-04-15T07:19:20;101339.44;;;11.61;66.87
38630;BME280;24384;51.988;4.644;2023-04-15T07:21:46;101331.81;;;11.82;66.83
38630;BME280;24384;51.988;4.644;2023-04-15T07:24:11;101336.03;;;11.88;67.24
38630;BME280;24384;51.988;4.644;2023-04-15T07:26:36;101339.69;;;12.13;66.18
38630;BME280;24384;51.988;4.644;2023-04-15T07:29:01;101340.44;;;12.17;65.75
38630;BME280;24384;51.988;4.644;2023-04-15T07:31:26;101347.63;;;12.13;65.49
38630;BME280;24384;51.988;4.644;2023-04-15T07:33:51;101350.78;;;12.25;65.03
38630;BME280;24384;51.988;4.644;2023-04-15T07:36:17;101360.88;;;12.40;64.66
38630;BME280;24384;51.988;4.644;2023-04-15T07:38:42;101364.53;;;12.63;63.69
38630;BME280;24384;51.988;4.644;2023-04-15T07:41:07;101360.25;;;12.59;64.70
38630;BME280;24384;51.988;4.644;2023-04-15T07:43:33;101368.53;;;12.76;63.89
38630;BME280;24384;51.988;4.644;2023-04-15T07:45:58;101371.66;;;12.87;64.09
38630;BME280;24384;51.988;4.644;2023-04-15T07:48:24;101384.28;;;12.79;64.11
38630;BME280;24384;51.988;4.644;2023-04-15T07:50:49;101380.50;;;13.13;63.03
38630;BME280;24384;51.988;4.644;2023-04-15T07:53:14;101378.59;;;13.17;64.38
38630;BME280;24384;51.988;4.644;2023-04-15T07:55:40;101379.00;;;13.30;63.34
38630;BME280;24384;51.988;4.644;2023-04-15T07:58:05;101387.16;;;13.50;63.71
38630;BME280;24384;51.988;4.644;2023-04-15T08:00:30;101404.31;;;13.64;62.17
38630;BME280;24384;51.988;4.644;2023-04-15T08:02:56;101401.44;;;13.70;61.82
38630;BME280;24384;51.988;4.644;2023-04-15T08:05:23;101403.38;;;13.88;62.22
38630;BME280;24384;51.988;4.644;2023-04-15T08:07:48;101409.56;;;13.89;60.90
38630;BME280;24384;51.988;4.644;2023-04-15T08:10:13;101411.53;;;13.84;61.40
38630;BME280;24384;51.988;4.644;2023-04-15T08:12:39;101414.47;;;13.76;61.64
38630;BME280;24384;51.988;4.644;2023-04-15T08:15:04;101424.25;;;13.97;61.63
38630;BME280;24384;51.988;4.644;2023-04-15T08:17:29;101427.69;;;14.01;61.13
38630;BME280;24384;51.988;4.644;2023-04-15T08:19:54;101436.44;;;14.25;62.03
38630;BME280;24384;51.988;4.644;2023-04-15T08:22:20;101433.47;;;14.11;59.88
38630;BME280;24384;51.988;4.644;2023-04-15T08:24:45;101435.66;;;14.23;59.83
38630;BME280;24384;51.988;4.644;2023-04-15T08:27:10;101439.41;;;14.18;60.56
38630;BME280;24384;51.988;4.644;2023-04-15T08:29:35;101438.16;;;14.04;58.93
38630;BME280;24384;51.988;4.644;2023-04-15T08:32:00;101448.59;;;14.09;58.42
38630;BME280;24384;51.988;4.644;2023-04-15T08:34:26;101452.78;;;14.14;59.50
38630;BME280;24384;51.988;4.644;2023-04-15T08:36:51;101460.69;;;14.16;59.70
38630;BME280;24384;51.988;4.644;2023-04-15T08:39:16;101473.72;;;14.46;60.47
38630;BME280;24384;51.988;4.644;2023-04-15T08:41:46;101476.59;;;14.63;58.70
38630;BME280;24384;51.988;4.644;2023-04-15T08:44:13;101473.00;;;14.86;58.18
38630;BME280;24384;51.988;4.644;2023-04-15T08:46:39;101481.19;;;15.02;56.33
38630;BME280;24384;51.988;4.644;2023-04-15T08:49:06;101483.41;;;15.13;55.66
38630;BME280;24384;51.988;4.644;2023-04-15T08:51:33;101481.94;;;15.06;55.06
38630;BME280;24384;51.988;4.644;2023-04-15T08:54:01;101488.81;;;15.32;55.90
38630;BME280;24384;51.988;4.644;2023-04-15T08:56:26;101490.06;;;15.24;55.36
38630;BME280;24384;51.988;4.644;2023-04-15T08:58:52;101497.97;;;15.46;55.41
38630;BME280;24384;51.988;4.644;2023-04-15T09:01:17;101503.41;;;15.43;55.11
38630;BME280;24384;51.988;4.644;2023-04-15T09:03:42;101501.44;;;15.48;55.25
38630;BME280;24384;51.988;4.644;2023-04-15T09:06:08;101501.91;;;15.57;56.02
38630;BME280;24384;51.988;4.644;2023-04-15T09:08:33;101501.63;;;15.64;54.92
38630;BME280;24384;51.988;4.644;2023-04-15T09:11:00;101499.44;;;15.73;53.12
38630;BME280;24384;51.988;4.644;2023-04-15T09:13:25;101500.91;;;15.81;53.83
38630;BME280;24384;51.988;4.644;2023-04-15T09:15:50;101498.88;;;16.06;53.71
38630;BME280;24384;51.988;4.644;2023-04-15T09:18:32;101499.19;;;16.19;54.84
38630;BME280;24384;51.988;4.644;2023-04-15T09:21:08;101521.31;;;16.20;49.96
38630;BME280;24384;51.988;4.644;2023-04-15T09:23:35;101520.19;;;16.25;50.13
38630;BME280;24384;51.988;4.644;2023-04-15T09:26:01;101523.50;;;16.31;50.80
38630;BME280;24384;51.988;4.644;2023-04-15T09:28:26;101533.84;;;16.18;51.36
38630;BME280;24384;51.988;4.644;2023-04-15T09:30:55;101536.31;;;16.41;49.51
38630;BME280;24384;51.988;4.644;2023-04-15T09:33:21;101543.28;;;16.44;52.24
38630;BME280;24384;51.988;4.644;2023-04-15T09:35:55;101543.41;;;16.22;49.86
38630;BME280;24384;51.988;4.644;2023-04-15T09:38:23;101539.75;;;16.43;50.29
38630;BME280;24384;51.988;4.644;2023-04-15T09:40:48;101548.47;;;16.66;50.14
38630;BME280;24384;51.988;4.644;2023-04-15T09:43:13;101547.41;;;16.70;48.75
38630;BME280;24384;51.988;4.644;2023-04-15T09:45:45;101549.47;;;17.02;49.28
38630;BME280;24384;51.988;4.644;2023-04-15T09:48:23;101544.97;;;17.39;47.41
38630;BME280;24384;51.988;4.644;2023-04-15T09:50:52;101540.97;;;17.65;46.62
38630;BME280;24384;51.988;4.644;2023-04-15T09:53:19;101565.19;;;17.78;45.60
38630;BME280;24384;51.988;4.644;2023-04-15T09:55:45;101560.75;;;17.78;45.60
38630;BME280;24384;51.988;4.644;2023-04-15T09:58:17;101559.94;;;18.11;45.15
38630;BME280;24384;51.988;4.644;2023-04-15T10:00:43;101554.00;;;17.88;43.06
38630;BME280;24384;51.988;4.644;2023-04-15T10:03:10;101563.97;;;17.67;42.15
38630;BME280;24384;51.988;4.644;2023-04-15T10:05:36;101564.09;;;17.47;44.99
38630;BME280;24384;51.988;4.644;2023-04-15T10:08:02;101575.66;;;17.65;45.45
38630;BME280;24384;51.988;4.644;2023-04-15T10:10:28;101572.50;;;17.74;42.86
38630;BME280;24384;51.988;4.644;2023-04-15T10:12:53;101581.56;;;17.89;42.99
38630;BME280;24384;51.988;4.644;2023-04-15T10:15:19;101581.78;;;17.84;43.76
38630;BME280;24384;51.988;4.644;2023-04-15T10:17:44;101586.63;;;17.76;41.67
38630;BME280;24384;51.988;4.644;2023-04-15T10:20:12;101582.25;;;17.93;44.24
38630;BME280;24384;51.988;4.644;2023-04-15T10:22:38;101586.53;;;18.13;45.17
38630;BME280;24384;51.988;4.644;2023-04-15T10:25:05;101592.88;;;18.28;44.75
38630;BME280;24384;51.988;4.644;2023-04-15T10:27:31;101587.03;;;18.37;44.19
38630;BME280;24384;51.988;4.644;2023-04-15T10:29:56;101597.59;;;18.72;43.71
38630;BME280;24384;51.988;4.644;2023-04-15T10:32:24;101589.97;;;18.98;42.48
38630;BME280;24384;51.988;4.644;2023-04-15T10:34:50;101598.47;;;18.72;43.17
38630;BME280;24384;51.988;4.644;2023-04-15T10:37:20;101597.75;;;18.86;43.22
38630;BME280;24384;51.988;4.644;2023-04-15T10:39:45;101600.06;;;18.92;41.79
38630;BME280;24384;51.988;4.644;2023-04-15T10:42:12;101596.97;;;19.00;40.71
38630;BME280;24384;51.988;4.644;2023-04-15T10:44:41;101591.94;;;19.10;42.90
38630;BME280;24384;51.988;4.644;2023-04-15T10:47:10;101605.53;;;19.21;43.57
38630;BME280;24384;51.988;4.644;2023-04-15T10:49:41;101611.34;;;19.29;40.01
38630;BME280;24384;51.988;4.644;2023-04-15T10:52:07;101613.25;;;19.58;42.53
38630;BME280;24384;51.988;4.644;2023-04-15T10:54:33;101607.09;;;19.72;40.97
38630;BME280;24384;51.988;4.644;2023-04-15T10:59:28;101613.03;;;19.46;44.08
38630;BME280;24384;51.988;4.644;2023-04-15T11:02:04;101619.63;;;19.71;43.33
38630;BME280;24384;51.988;4.644;2023-04-15T11:04:50;101624.31;;;20.12;41.46
38630;BME280;24384;51.988;4.644;2023-04-15T11:08:01;101617.25;;;20.11;41.94
38630;BME280;24384;51.988;4.644;2023-04-15T11:10:02;101615.94;;;20.33;42.77
38630;BME280;24384;51.988;4.644;2023-04-15T11:12:34;101616.97;;;20.30;44.01
38630;BME280;24384;51.988;4.644;2023-04-15T11:15:21;101617.34;;;20.38;41.65
38630;BME280;24384;51.988;4.644;2023-04-15T11:17:46;101616.78;;;20.48;41.78
38630;BME280;24384;51.988;4.644;2023-04-15T11:20:15;101628.66;;;20.44;42.02
38630;BME280;24384;51.988;4.644;2023-04-15T11:22:51;101626.81;;;20.58;44.18
38630;BME280;24384;51.988;4.644;2023-04-15T11:25:23;101627.13;;;20.83;41.95
38630;BME280;24384;51.988;4.644;2023-04-15T11:27:49;101622.78;;;20.95;41.62
38630;BME280;24384;51.988;4.644;2023-04-15T11:30:18;101628.25;;;20.64;42.89
38630;BME280;24384;51.988;4.644;2023-04-15T11:32:45;101635.91;;;20.85;42.39
38630;BME280;24384;51.988;4.644;2023-04-15T11:35:11;101645.31;;;20.78;40.55
38630;BME280;24384;51.988;4.644;2023-04-15T11:37:36;101648.91;;;21.05;40.70
38630;BME280;24384;51.988;4.644;2023-04-15T11:40:01;101654.69;;;20.56;40.84
38630;BME280;24384;51.988;4.644;2023-04-15T11:42:27;101664.00;;;20.20;40.61
38630;BME280;24384;51.988;4.644;2023-04-15T11:45:05;101659.56;;;20.04;40.03
38630;BME280;24384;51.988;4.644;2023-04-15T11:47:30;101658.97;;;20.30;42.08
38630;BME280;24384;51.988;4.644;2023-04-15T11:49:55;101671.13;;;19.75;42.67
38630;BME280;24384;51.988;4.644;2023-04-15T11:52:20;101666.63;;;19.45;43.27
38630;BME280;24384;51.988;4.644;2023-04-15T11:54:46;101674.06;;;19.70;45.19
38630;BME280;24384;51.988;4.644;2023-04-15T11:57:12;101673.03;;;19.89;42.80
38630;BME280;24384;51.988;4.644;2023-04-15T11:59:41;101671.19;;;19.89;40.00
38630;BME280;24384;51.988;4.644;2023-04-15T12:02:12;101668.03;;;20.27;41.91
38630;BME280;24384;51.988;4.644;2023-04-15T12:04:38;101676.38;;;19.92;37.24
38630;BME280;24384;51.988;4.644;2023-04-15T12:07:03;101677.38;;;20.06;38.28
38630;BME280;24384;51.988;4.644;2023-04-15T12:09:29;101679.03;;;20.23;40.15
38630;BME280;24384;51.988;4.644;2023-04-15T12:11:56;101672.09;;;20.92;38.07
38630;BME280;24384;51.988;4.644;2023-04-15T12:14:31;101677.59;;;21.18;37.70
38630;BME280;24384;51.988;4.644;2023-04-15T12:17:00;101683.91;;;21.31;35.36
38630;BME280;24384;51.988;4.644;2023-04-15T12:19:30;101690.31;;;21.70;36.74
38630;BME280;24384;51.988;4.644;2023-04-15T12:21:57;101705.63;;;20.99;35.78
38630;BME280;24384;51.988;4.644;2023-04-15T12:24:23;101697.25;;;20.46;36.62
38630;BME280;24384;51.988;4.644;2023-04-15T12:26:53;101686.06;;;20.97;37.84
38630;BME280;24384;51.988;4.644;2023-04-15T12:29:19;101705.50;;;20.86;37.08
38630;BME280;24384;51.988;4.644;2023-04-15T12:31:45;101699.16;;;21.58;36.39
38630;BME280;24384;51.988;4.644;2023-04-15T12:34:11;101703.50;;;21.73;36.14
38630;BME280;24384;51.988;4.644;2023-04-15T12:36:36;101715.34;;;21.15;34.21
38630;BME280;24384;51.988;4.644;2023-04-15T12:39:04;101725.47;;;20.07;34.30
38630;BME280;24384;51.988;4.644;2023-04-15T12:41:30;101733.78;;;20.78;33.03
38630;BME280;24384;51.988;4.644;2023-04-15T12:43:55;101710.91;;;21.28;31.56
38630;BME280;24384;51.988;4.644;2023-04-15T12:46:23;101719.13;;;21.54;32.62
38630;BME280;24384;51.988;4.644;2023-04-15T12:48:49;101719.91;;;21.96;31.06
38630;BME280;24384;51.988;4.644;2023-04-15T12:51:15;101724.75;;;22.82;32.77
38630;BME280;24384;51.988;4.644;2023-04-15T12:53:40;101721.53;;;24.12;31.84